Portada
METAR-TAF:

METAR-TAF

Aeroports :

Augsburg, Alemanya

latitud: 48-26N, longitud: 010-56E, altitud: 461 m

Observació

L'informe es va fer fa 27 minuts, a les 23:20 UTC
Vent 10 kt del Oest/Sud-Oest
Temperatura 0°C
Humitat 86%
Pressió 1008 hPa
Visibilitat 10 km o més

METAR: EDMA 262320Z AUTO 24010KT 9999 // FEW035/// SCT059/// BKN072/// 00/M02 Q1008

Hora: 00:47 (23:47 UTC)

Pronòstic

L'informe es va fer fa 6 hores i 47 minuts, a les 17:00 UTC
Pronòstic vàlid del 26 a les 18 UTC al 27 a les 03 UTC
Vent 12 kt del Oest
Visibilitat 10 km o més
Cel ennuvolat a una alçada de 2500 ft
Probabilitat 30% :
Temporalment
l' 26 a les 18 UTC al 27 a les 03 UTC
Vent 20 kt del Oest/Sud-Oest amb ràfegues de 30 kt
Visibilitat: 2500 m
Cel ennuvolat a una alçada de 2000 ft, Cumulonimbus.
xàfecs de neu

TAF: EDMA 261700Z 2618/2703 27012KT 9999 BKN025 PROB30 TEMPO 2618/2703 24020G30KT 2500 SHSN BKN020CB

Observacions i pronòstics meteorològics de més de 4000 aeroports (METAR i TAF).

Les estacions disponibles són els punts grocs i vermells al mapa.

Posi el ratolí al punt desitjat per veure el nom de l'estació.

Feu clic per veure les observacions i els pronòstics meteorològics.

Per canviar el mapa: feu clic els botons verds amb una creu de color negre per apropar; al botó verd amb un guió per allunyar la imatge; o en les fletxes verdes per a mapes adjacents.


METAR-TAF: